Time;durP1;ratioP1;P1;durP2;ratioP2;P2;SDS_P1;SDS_P2;PMS_P1;PMS_P2;Temp;Humidity;BMP_temperature;BMP_pressure;BME280_temperature;BME280_humidity;BME280_pressure;Samples;Min_cycle;Max_cycle;Signal;HPM_P1;HPM_P2
2020/12/16 00:07:30;;;;;;;20.63;14.57;;;;;;;19.09;43.47;100960.22;31606438;28;20285;-64
2020/12/16 00:22:40;;;;;;;17.55;14.63;;;;;;;19.08;43.92;100983.09;31608603;28;20822;-63
2020/12/16 00:37:41;;;;;;;16.58;13.55;;;;;;;19.07;43.90;100999.84;31530023;28;20102;-63
2020/12/16 00:52:42;;;;;;;18.30;14.60;;;;;;;19.02;43.85;101018.66;31482221;28;20029;-62
2020/12/16 01:07:43;;;;;;;16.57;13.53;;;;;;;19.08;44.08;101048.97;31482229;28;20033;-63
2020/12/16 01:22:45;;;;;;;19.43;14.37;;;;;;;19.10;44.07;101067.25;31503419;28;20795;-64
2020/12/16 01:37:46;;;;;;;17.27;13.63;;;;;;;19.08;44.20;101074.44;31581495;28;20298;-65
2020/12/16 01:52:48;;;;;;;19.05;13.82;;;;;;;19.04;44.42;101081.78;31626772;28;20023;-64
2020/12/16 02:07:52;;;;;;;16.73;13.07;;;;;;;19.04;44.39;101087.03;31607169;28;20116;-61
2020/12/16 02:22:53;;;;;;;16.52;13.07;;;;;;;19.03;44.74;101103.78;31621041;28;20025;-61
2020/12/16 02:37:54;;;;;;;16.17;13.05;;;;;;;19.07;44.24;101121.03;31566257;28;20047;-63
2020/12/16 02:52:57;;;;;;;15.23;12.37;;;;;;;19.08;44.66;101137.69;31618140;28;20031;-63
2020/12/16 03:07:58;;;;;;;15.18;12.73;;;;;;;19.09;44.65;101142.00;31622568;28;20760;-62
2020/12/16 03:22:59;;;;;;;15.68;12.65;;;;;;;19.08;44.92;101156.97;31615473;28;20031;-64
2020/12/16 03:38:00;;;;;;;17.27;12.07;;;;;;;19.10;44.63;101170.84;31612673;28;20051;-62
2020/12/16 03:53:01;;;;;;;14.00;11.17;;;;;;;19.12;44.59;101173.38;31611098;28;20766;-63
2020/12/16 04:08:03;;;;;;;14.15;11.40;;;;;;;19.09;44.94;101192.88;31610214;28;20320;-62
2020/12/16 04:23:04;;;;;;;14.32;11.32;;;;;;;19.01;44.82;101198.78;31608082;28;20086;-61
2020/12/16 04:38:05;;;;;;;13.38;11.02;;;;;;;18.95;44.86;101208.94;31524837;28;20106;-63
2020/12/16 04:53:07;;;;;;;13.20;11.13;;;;;;;18.91;45.30;101224.13;31499509;28;20037;-60
2020/12/16 05:08:12;;;;;;;13.10;10.75;;;;;;;18.88;45.02;101237.56;31504899;28;20294;-63
2020/12/16 05:23:13;;;;;;;13.02;9.70;;;;;;;18.90;45.47;101259.34;31503310;28;20079;-63
2020/12/16 05:38:14;;;;;;;13.77;10.17;;;;;;;18.87;45.41;101267.47;31587084;28;20456;-64
2020/12/16 05:53:25;;;;;;;12.83;9.80;;;;;;;18.84;45.25;101294.88;31627894;28;20336;-63
2020/12/16 06:08:32;;;;;;;12.90;8.95;;;;;;;18.85;45.43;101308.88;31623000;28;20632;-64
2020/12/16 06:23:40;;;;;;;12.27;9.48;;;;;;;18.84;45.50;101315.13;31623620;28;20403;-63
2020/12/16 06:38:43;;;;;;;11.73;9.05;;;;;;;18.81;45.40;101331.16;31622112;28;20460;-63
2020/12/16 06:53:44;;;;;;;11.07;8.13;;;;;;;18.82;45.23;101351.25;31619024;28;20394;-64
2020/12/16 07:08:45;;;;;;;9.82;7.95;;;;;;;18.83;45.08;101366.97;31622572;28;20460;-62
2020/12/16 07:24:02;;;;;;;21.23;14.87;;;;;;;17.16;46.28;101391.91;31627451;28;20028;-59
2020/12/16 07:39:03;;;;;;;35.73;22.60;;;;;;;16.40;48.88;101398.56;31619897;28;20290;-60
2020/12/16 07:54:04;;;;;;;27.05;16.67;;;;;;;15.44;50.34;101392.25;31627189;28;20065;-60
2020/12/16 08:09:05;;;;;;;21.08;14.93;;;;;;;14.39;52.90;101392.13;31620690;28;20257;-59
2020/12/16 08:24:06;;;;;;;18.27;11.73;;;;;;;16.00;52.04;101401.06;31636103;28;20054;-59
2020/12/16 08:39:08;;;;;;;14.48;8.68;;;;;;;17.36;47.89;101407.16;31532099;28;20095;-62
2020/12/16 08:54:10;;;;;;;15.90;8.80;;;;;;;18.09;47.41;101433.75;31489125;28;20390;-64
2020/12/16 09:09:13;;;;;;;12.63;6.78;;;;;;;18.79;45.65;101423.44;31662731;28;20024;-61
2020/12/16 09:24:14;;;;;;;15.38;6.70;;;;;;;19.40;44.61;101427.69;31685897;28;20105;-59
2020/12/16 09:39:18;;;;;;;12.40;7.40;;;;;;;19.60;44.46;101434.91;31635930;28;20106;-61
2020/12/16 09:54:31;;;;;;;12.73;7.75;;;;;;;19.34;45.09;101457.19;31688986;28;20019;-59
2020/12/16 10:09:35;;;;;;;12.10;7.45;;;;;;;19.19;45.88;101467.06;31710276;28;20423;-66
2020/12/16 10:24:36;;;;;;;11.75;7.10;;;;;;;19.35;45.81;101459.69;31718349;28;20112;-64
2020/12/16 10:39:37;;;;;;;10.60;6.72;;;;;;;19.19;46.01;101470.53;31694258;28;20430;-66
2020/12/16 10:54:38;;;;;;;10.17;7.40;;;;;;;18.97;46.05;101476.56;31647269;28;20040;-66
2020/12/16 11:09:39;;;;;;;11.38;7.07;;;;;;;18.92;47.33;101459.41;31659765;28;20312;-65
2020/12/16 11:24:40;;;;;;;11.23;7.70;;;;;;;18.80;47.61;101464.63;31700034;28;20055;-65
2020/12/16 11:39:42;;;;;;;19.77;14.17;;;;;;;18.48;46.63;101459.00;31677456;28;20041;-65
2020/12/16 11:54:43;;;;;;;12.70;9.65;;;;;;;18.66;47.61;101463.91;31640014;28;20289;-64
2020/12/16 12:09:45;;;;;;;14.55;9.85;;;;;;;18.69;47.37;101467.19;31657101;28;20030;-66
2020/12/16 12:24:46;;;;;;;12.70;8.80;;;;;;;18.72;47.07;101456.41;31648643;28;20535;-64
2020/12/16 12:39:47;;;;;;;18.00;11.47;;;;;;;18.71;45.09;101461.78;31645887;28;20036;-61
2020/12/16 12:54:48;;;;;;;14.63;9.32;;;;;;;18.84;46.06;101459.97;31643030;28;20347;-62
2020/12/16 13:09:49;;;;;;;12.47;8.40;;;;;;;18.93;46.47;101461.09;31595122;28;20401;-62
2020/12/16 13:24:50;;;;;;;12.13;8.53;;;;;;;18.84;46.13;101466.06;31749008;28;20292;-61
2020/12/16 13:39:51;;;;;;;12.97;8.47;;;;;;;18.80;46.60;101469.03;31701068;28;20291;-66
2020/12/16 13:54:51;;;;;;;10.23;7.80;;;;;;;18.77;46.94;101479.81;31716362;28;20359;-66
2020/12/16 14:09:52;;;;;;;12.70;9.27;;;;;;;18.71;47.38;101488.94;31680513;28;20286;-64
2020/12/16 14:24:53;;;;;;;12.30;9.27;;;;;;;18.69;47.39;101484.75;31688000;28;20506;-64
2020/12/16 14:39:54;;;;;;;11.83;8.67;;;;;;;18.68;47.71;101499.72;31692204;28;20285;-64
2020/12/16 14:54:55;;;;;;;10.13;8.13;;;;;;;18.68;47.86;101483.09;31620332;28;20294;-64
2020/12/16 15:09:56;;;;;;;11.48;7.97;;;;;;;18.65;48.16;101510.47;31670000;28;20335;-65
2020/12/16 15:24:57;;;;;;;11.50;7.93;;;;;;;18.63;47.90;101512.38;31623328;28;20321;-67
2020/12/16 15:40:05;;;;;;;17.17;11.82;;;;;;;18.29;45.02;101537.59;31635415;28;20302;-65
2020/12/16 15:55:06;;;;;;;16.13;9.63;;;;;;;17.87;47.85;101547.50;31607010;28;20036;-66
2020/12/16 16:10:07;;;;;;;11.77;8.25;;;;;;;18.23;47.49;101545.91;31628691;28;20073;-66
2020/12/16 16:25:08;;;;;;;12.35;7.00;;;;;;;18.45;47.23;101545.28;31643428;28;20035;-67
2020/12/16 16:40:14;;;;;;;11.32;7.18;;;;;;;18.52;47.47;101550.00;31636314;28;20043;-65
2020/12/16 16:55:15;;;;;;;9.50;7.00;;;;;;;18.54;47.85;101545.47;31623126;28;20089;-65
2020/12/16 17:10:16;;;;;;;11.97;7.67;;;;;;;18.52;48.22;101554.41;31646088;28;20034;-65
2020/12/16 17:25:18;;;;;;;10.50;7.20;;;;;;;18.52;48.42;101559.69;31661521;28;20704;-65
2020/12/16 17:40:19;;;;;;;14.05;9.25;;;;;;;18.47;46.73;101560.00;31657945;28;20036;-63
2020/12/16 17:55:21;;;;;;;16.27;10.50;;;;;;;18.22;45.58;101558.25;31653044;28;20050;-65
2020/12/16 18:10:21;;;;;;;13.45;9.05;;;;;;;18.17;46.10;101574.34;31653805;28;20282;-68
2020/12/16 18:25:23;;;;;;;13.40;8.77;;;;;;;18.29;45.93;101575.28;31639474;28;20028;-61
2020/12/16 18:40:24;;;;;;;13.38;8.23;;;;;;;18.38;45.82;101577.28;31624800;28;20120;-62
2020/12/16 18:55:25;;;;;;;12.00;8.60;;;;;;;18.39;46.12;101572.84;31648658;28;20044;-61
2020/12/16 19:10:26;;;;;;;14.07;9.02;;;;;;;18.36;46.27;101580.97;31599217;28;20278;-61
2020/12/16 19:25:27;;;;;;;13.37;9.27;;;;;;;18.36;46.58;101566.00;31639734;28;20106;-61
2020/12/16 19:40:29;;;;;;;14.50;9.73;;;;;;;18.33;47.05;101563.59;31653292;28;20293;-62
2020/12/16 19:55:30;;;;;;;13.10;8.75;;;;;;;18.29;46.99;101554.22;31634170;28;20399;-63
2020/12/16 20:10:31;;;;;;;14.43;10.32;;;;;;;18.30;47.08;101549.81;31626811;28;20031;-65
2020/12/16 20:25:32;;;;;;;22.52;15.20;;;;;;;17.91;46.33;101556.84;31611625;28;20496;-61
2020/12/16 20:40:33;;;;;;;21.60;14.63;;;;;;;18.06;46.94;101568.97;31591175;28;20032;-62
2020/12/16 20:55:34;;;;;;;18.83;12.95;;;;;;;18.27;46.59;101547.41;31635923;28;20042;-62
2020/12/16 21:10:36;;;;;;;16.63;12.23;;;;;;;18.33;46.76;101547.81;31660062;28;20468;-63
2020/12/16 21:25:37;;;;;;;16.52;12.27;;;;;;;18.31;47.01;101527.81;31608518;28;20703;-63
2020/12/16 21:40:38;;;;;;;16.35;12.50;;;;;;;18.29;46.92;101492.88;31635262;28;20489;-66
2020/12/16 21:55:39;;;;;;;16.83;12.75;;;;;;;18.25;47.04;101494.03;31645294;28;20036;-63
2020/12/16 22:10:40;;;;;;;17.50;11.38;;;;;;;18.25;46.63;101492.22;31638599;28;20024;-62
2020/12/16 22:25:41;;;;;;;15.00;11.95;;;;;;;18.32;46.68;101504.00;31659356;28;20035;-62
2020/12/16 22:40:42;;;;;;;19.48;13.85;;;;;;;18.17;45.96;101500.69;31630302;28;20054;-63
2020/12/16 22:55:43;;;;;;;21.80;14.35;;;;;;;17.99;45.65;101487.00;31620360;28;20050;-63
2020/12/16 23:10:45;;;;;;;17.55;12.65;;;;;;;17.92;46.31;101484.91;31626649;28;20039;-63
2020/12/16 23:25:47;;;;;;;19.67;13.70;;;;;;;17.87;46.41;101505.44;31634719;28;20125;-63
2020/12/16 23:40:51;;;;;;;16.13;12.75;;;;;;;17.83;45.99;101475.88;31635472;28;20413;-62
2020/12/16 23:55:52;;;;;;;17.80;13.20;;;;;;;17.84;46.13;101471.44;31600800;28;20078;-63
